KCLL/CLL METAR and TAF weather

Enter ICAO airport designator
Station Type Date Time Source
KCLL METAR 2022/01/29 00:53 UTC NOAA

KCLL 290053Z 35004KT 10SM CLR 10/M05 A3044 RMK AO2 SLP307 T01001050


Station Type Date Time Source
KCLL Decoded METAR 2022/01/29 00:53 UTC NOAA

COLLEGE STN EASTERWOOD FIELD, TX, United States (KCLL) 30-35N 096-22W 96M
Jan 28, 2022 - 07:53 PM EST / 2022.01.29 0053 UTC
Wind: from the N (350 degrees) at 5 MPH (4 KT):0
Visibility: 10 mile(s):0
Sky conditions: clear
Temperature: 50.0 F (10.0 C)
Dew Point: 23.0 F (-5.0 C)
Relative Humidity: 34%
Pressure (altimeter): 30.44 in. Hg (1030 hPa)
ob: KCLL 290053Z 35004KT 10SM CLR 10/M05 A3044 RMK AO2 SLP307 T01001050
cycle: 1

Station Type Date Time Source
KCLL TAF 2022/01/28 18:24 UTC NOAA

TAF KCLL 281721Z 2818/2918 36015G20KT P6SM SKC
FM290000 35005KT P6SM SKC
FM290400 VRB02KT P6SM SKC
FM291500 23006KT P6SM SKC

Example: see airport list